createdAt,value
2023-04-18T00:00:49.564Z,100910.53
2023-04-18T00:03:16.801Z,100910.21
2023-04-18T00:05:44.245Z,100903.39
2023-04-18T00:08:11.326Z,100898.33
2023-04-18T00:10:38.252Z,100895.67
2023-04-18T00:13:05.343Z,100897.79
2023-04-18T00:15:32.433Z,100903.23
2023-04-18T00:18:00.981Z,100904.98
2023-04-18T00:20:27.979Z,100908.30
2023-04-18T00:22:56.275Z,100908.77
2023-04-18T00:25:23.343Z,100911.41
2023-04-18T00:27:50.493Z,100910.25
2023-04-18T00:30:17.818Z,100908.29
2023-04-18T00:32:44.759Z,100907.82
2023-04-18T00:35:11.808Z,100904.75
2023-04-18T00:37:38.825Z,100902.84
2023-04-18T00:40:06.850Z,100897.13
2023-04-18T00:42:34.049Z,100897.48
2023-04-18T00:45:01.698Z,100899.67
2023-04-18T00:47:28.886Z,100902.38
2023-04-18T00:49:56.150Z,100904.12
2023-04-18T00:52:26.182Z,100902.95
2023-04-18T00:54:54.562Z,100906.29
2023-04-18T00:57:22.479Z,100901.36
2023-04-18T00:59:50.199Z,100902.84
2023-04-18T01:02:17.684Z,100901.00
2023-04-18T01:04:45.091Z,100902.16
2023-04-18T01:07:12.727Z,100900.78
2023-04-18T01:09:40.493Z,100897.91
2023-04-18T01:12:07.662Z,100896.17
2023-04-18T01:14:34.748Z,100899.13
2023-04-18T01:17:03.813Z,100899.46
2023-04-18T01:19:30.997Z,100898.77
2023-04-18T01:21:57.970Z,100901.30
2023-04-18T01:24:27.058Z,100902.20
2023-04-18T01:26:54.128Z,100902.04
2023-04-18T01:29:21.336Z,100904.64
2023-04-18T01:31:50.176Z,100904.77
2023-04-18T01:34:20.601Z,100906.27
2023-04-18T01:36:47.621Z,100903.35
2023-04-18T01:39:15.704Z,100901.72
2023-04-18T01:41:42.843Z,100900.02
2023-04-18T01:44:10.097Z,100898.27
2023-04-18T01:46:37.052Z,100896.48
2023-04-18T01:49:04.151Z,100897.00
2023-04-18T01:51:31.612Z,100897.74
2023-04-18T01:53:58.692Z,100898.48
2023-04-18T01:56:25.656Z,100896.09
2023-04-18T01:58:52.603Z,100900.29
2023-04-18T02:01:19.673Z,100902.61
2023-04-18T02:03:47.687Z,100899.42
2023-04-18T02:06:14.813Z,100898.48
2023-04-18T02:08:41.806Z,100898.32
2023-04-18T02:11:09.178Z,100903.77
2023-04-18T02:13:36.196Z,100906.58
2023-04-18T02:16:11.814Z,100908.52
2023-04-18T02:18:40.275Z,100909.70
2023-04-18T02:21:07.460Z,100907.06
2023-04-18T02:23:34.436Z,100906.32
2023-04-18T02:26:01.473Z,100901.45
2023-04-18T02:28:28.446Z,100899.42
2023-04-18T02:30:56.088Z,100897.41
2023-04-18T02:33:23.106Z,100895.62
2023-04-18T02:35:52.165Z,100894.08
2023-04-18T02:38:19.097Z,100889.31
2023-04-18T02:40:46.080Z,100894.02
2023-04-18T02:43:13.049Z,100897.09
2023-04-18T02:45:40.134Z,100898.14
2023-04-18T02:48:07.216Z,100901.02
2023-04-18T02:50:35.686Z,100904.02
2023-04-18T02:53:02.814Z,100906.14
2023-04-18T02:55:39.479Z,100907.31
2023-04-18T02:58:07.032Z,100905.61
2023-04-18T03:00:57.396Z,100904.02
2023-04-18T03:03:47.188Z,100902.08
2023-04-18T03:06:34.365Z,100895.77
2023-04-18T03:09:02.862Z,100897.73
2023-04-18T03:11:31.572Z,100899.25
2023-04-18T03:13:58.920Z,100902.17
2023-04-18T03:16:28.578Z,100901.52
2023-04-18T03:18:56.584Z,100902.80
2023-04-18T03:21:23.800Z,100905.23
2023-04-18T03:23:50.821Z,100909.94
2023-04-18T03:26:17.857Z,100916.23
2023-04-18T03:28:45.056Z,100917.45
2023-04-18T03:31:12.517Z,100914.87
2023-04-18T03:33:42.580Z,100914.91
2023-04-18T03:36:12.205Z,100919.04
2023-04-18T03:38:40.833Z,100924.64
2023-04-18T03:41:08.490Z,100928.41
2023-04-18T03:43:36.710Z,100927.71
2023-04-18T03:46:04.244Z,100929.67
2023-04-18T03:48:35.867Z,100928.83
2023-04-18T03:51:07.085Z,100930.98
2023-04-18T03:53:34.235Z,100933.10
2023-04-18T03:56:01.176Z,100933.99
2023-04-18T03:58:41.299Z,100936.44
2023-04-18T04:01:08.457Z,100939.81
2023-04-18T04:03:35.549Z,100939.60
2023-04-18T04:06:02.608Z,100941.71
2023-04-18T04:08:29.578Z,100944.99
2023-04-18T04:10:56.886Z,100953.41
2023-04-18T04:13:24.285Z,100951.71
2023-04-18T04:15:52.471Z,100948.42
2023-04-18T04:18:19.436Z,100951.07
2023-04-18T04:20:46.685Z,100950.70
2023-04-18T04:23:19.359Z,100952.48
2023-04-18T04:25:46.574Z,100958.54
2023-04-18T04:28:23.010Z,100961.12
2023-04-18T04:30:54.005Z,100963.56
2023-04-18T04:33:28.816Z,100964.71
2023-04-18T04:36:00.395Z,100965.72
2023-04-18T04:38:31.323Z,100967.16
2023-04-18T04:40:58.791Z,100969.64
2023-04-18T04:43:28.940Z,100970.80
2023-04-18T04:45:57.820Z,100975.94
2023-04-18T04:48:25.268Z,100976.63
2023-04-18T04:50:57.704Z,100982.17
2023-04-18T04:53:26.876Z,100987.04
2023-04-18T04:55:54.200Z,100985.88
2023-04-18T04:58:22.696Z,100988.48
2023-04-18T05:01:03.243Z,100994.29
2023-04-18T05:03:31.516Z,100996.55
2023-04-18T05:05:58.641Z,100998.30
2023-04-18T05:08:26.473Z,101004.95
2023-04-18T05:10:53.460Z,101004.59
2023-04-18T05:13:20.508Z,101003.86
2023-04-18T05:15:47.696Z,101006.50
2023-04-18T05:18:14.920Z,101006.34
2023-04-18T05:20:41.889Z,101011.67
2023-04-18T05:23:09.037Z,101014.27
2023-04-18T05:25:36.888Z,101021.30
2023-04-18T05:28:08.482Z,101025.48
2023-04-18T05:30:35.719Z,101031.98
2023-04-18T05:33:02.901Z,101034.10
2023-04-18T05:35:29.894Z,101037.44
2023-04-18T05:37:58.089Z,101039.50
2023-04-18T05:40:27.504Z,101045.06
2023-04-18T05:42:54.426Z,101049.50
2023-04-18T05:45:21.452Z,101054.84
2023-04-18T05:47:48.429Z,101053.31
2023-04-18T05:50:15.662Z,101054.64
2023-04-18T05:52:42.671Z,101060.76
2023-04-18T05:55:09.849Z,101061.14
2023-04-18T05:57:37.221Z,101065.11
2023-04-18T06:00:07.102Z,101068.23
2023-04-18T06:02:39.737Z,101070.35
2023-04-18T06:05:08.216Z,101070.35
2023-04-18T06:07:35.424Z,101071.04
2023-04-18T06:10:02.399Z,101075.38
2023-04-18T06:12:29.672Z,101076.77
2023-04-18T06:14:56.581Z,101079.13
2023-04-18T06:17:23.542Z,101083.04
2023-04-18T06:19:50.478Z,101082.83
2023-04-18T06:22:17.677Z,101081.77
2023-04-18T06:24:45.170Z,101079.24
2023-04-18T06:27:24.200Z,101081.31
2023-04-18T06:29:55.239Z,101083.38
2023-04-18T06:32:22.221Z,101086.19
2023-04-18T06:34:49.457Z,101080.47
2023-04-18T06:37:16.851Z,101081.59
2023-04-18T06:39:43.741Z,101081.80
2023-04-18T06:42:11.028Z,101080.58
2023-04-18T06:44:44.505Z,101085.98
2023-04-18T06:47:11.783Z,101090.36
2023-04-18T06:49:38.690Z,101089.09
2023-04-18T06:52:12.591Z,101088.67
2023-04-18T06:54:40.230Z,101094.86
2023-04-18T06:57:07.298Z,101094.34
2023-04-18T06:59:35.712Z,101097.92
2023-04-18T07:02:02.665Z,101102.33
2023-04-18T07:04:29.658Z,101106.23
2023-04-18T07:06:56.719Z,101107.60
2023-04-18T07:09:23.813Z,101109.23
2023-04-18T07:11:52.705Z,101109.11
2023-04-18T07:14:23.382Z,101111.89
2023-04-18T07:16:51.084Z,101115.22
2023-04-18T07:19:18.214Z,101117.00
2023-04-18T07:21:46.320Z,101120.31
2023-04-18T07:24:13.791Z,101121.79
2023-04-18T07:26:41.257Z,101127.96
2023-04-18T07:29:08.192Z,101128.13
2023-04-18T07:31:35.472Z,101127.02
2023-04-18T07:34:02.546Z,101126.90
2023-04-18T07:36:32.742Z,101130.91
2023-04-18T07:38:59.804Z,101128.08
2023-04-18T07:41:26.945Z,101133.75
2023-04-18T07:43:53.882Z,101131.48
2023-04-18T07:46:20.954Z,101133.48
2023-04-18T07:48:47.983Z,101139.35
2023-04-18T07:51:15.035Z,101140.17
2023-04-18T07:53:44.035Z,101141.17
2023-04-18T07:56:15.135Z,101143.81
2023-04-18T07:58:42.220Z,101144.80
2023-04-18T08:01:14.592Z,101147.20
2023-04-18T08:03:42.003Z,101144.92
2023-04-18T08:06:09.984Z,101146.50
2023-04-18T08:08:37.002Z,101149.77
2023-04-18T08:11:04.008Z,101157.29
2023-04-18T08:13:31.540Z,101157.55
2023-04-18T08:16:00.491Z,101158.52
2023-04-18T08:18:27.855Z,101160.46
2023-04-18T08:20:55.595Z,101157.86
2023-04-18T08:23:22.526Z,101157.73
2023-04-18T08:25:49.381Z,101158.16
2023-04-18T08:28:16.371Z,101159.26
2023-04-18T08:30:44.281Z,101155.67
2023-04-18T08:33:11.337Z,101160.21
2023-04-18T08:35:38.273Z,101162.23
2023-04-18T08:38:05.793Z,101161.52
2023-04-18T08:40:32.781Z,101166.80
2023-04-18T08:43:05.140Z,101170.39
2023-04-18T08:45:33.756Z,101162.88
2023-04-18T08:48:01.772Z,101160.44
2023-04-18T08:50:29.158Z,101161.76
2023-04-18T08:52:56.713Z,101162.77
2023-04-18T08:55:23.688Z,101168.16
2023-04-18T08:57:54.211Z,101170.27
2023-04-18T09:00:24.056Z,101177.00
2023-04-18T09:02:56.989Z,101178.77
2023-04-18T09:05:26.999Z,101181.11
2023-04-18T09:07:56.404Z,101179.48
2023-04-18T09:10:35.030Z,101174.95
2023-04-18T09:13:04.500Z,101181.73
2023-04-18T09:15:31.881Z,101181.38
2023-04-18T09:18:03.047Z,101182.42
2023-04-18T09:20:35.862Z,101180.41
2023-04-18T09:23:06.051Z,101179.92
2023-04-18T09:25:36.308Z,101176.70
2023-04-18T09:28:04.794Z,101178.69
2023-04-18T09:30:38.155Z,101181.95
2023-04-18T09:33:10.366Z,101182.36
2023-04-18T09:35:38.465Z,101184.69
2023-04-18T09:38:07.881Z,101186.63
2023-04-18T09:40:35.034Z,101183.78
2023-04-18T09:43:18.561Z,101185.40
2023-04-18T09:45:48.968Z,101187.75
2023-04-18T09:48:16.200Z,101188.65
2023-04-18T09:50:44.679Z,101190.73
2023-04-18T09:53:13.514Z,101190.42
2023-04-18T09:55:42.706Z,101195.73
2023-04-18T09:58:11.657Z,101195.89
2023-04-18T10:00:40.365Z,101190.71
2023-04-18T10:03:10.058Z,101188.44
2023-04-18T10:05:40.600Z,101187.65
2023-04-18T10:08:09.614Z,101190.88
2023-04-18T10:10:38.797Z,101193.55
2023-04-18T10:13:09.746Z,101192.88
2023-04-18T10:15:38.348Z,101188.07
2023-04-18T10:18:15.848Z,101186.52
2023-04-18T10:20:42.970Z,101188.13
2023-04-18T10:23:32.080Z,101185.51
2023-04-18T10:25:59.582Z,101179.86
2023-04-18T10:28:28.274Z,101178.69
2023-04-18T10:31:05.886Z,101175.80
2023-04-18T10:36:20.601Z,101176.89
2023-04-18T10:38:49.492Z,101176.43
2023-04-18T10:41:26.476Z,101174.07
2023-04-18T10:44:18.374Z,101177.22
2023-04-18T10:47:08.587Z,101172.31
2023-04-18T10:49:38.535Z,101174.17
2023-04-18T10:52:08.953Z,101175.73
2023-04-18T10:54:42.430Z,101174.21
2023-04-18T10:57:10.559Z,101178.61
2023-04-18T10:59:39.783Z,101182.83
2023-04-18T11:02:28.982Z,101184.69
2023-04-18T11:05:00.770Z,101182.20
2023-04-18T11:07:38.383Z,101178.10
2023-04-18T11:10:07.876Z,101182.34
2023-04-18T11:12:37.475Z,101180.63
2023-04-18T11:15:12.587Z,101181.69
2023-04-18T11:17:43.222Z,101179.54
2023-04-18T11:20:15.190Z,101178.21
2023-04-18T11:22:50.752Z,101176.43
2023-04-18T11:25:19.658Z,101181.96
2023-04-18T11:27:48.966Z,101185.81
2023-04-18T11:30:16.352Z,101189.75
2023-04-18T11:32:43.947Z,101186.11
2023-04-18T11:35:12.973Z,101188.14
2023-04-18T11:37:41.569Z,101193.23
2023-04-18T11:40:10.204Z,101189.38
2023-04-18T11:42:39.342Z,101189.16
2023-04-18T11:45:14.333Z,101186.98
2023-04-18T11:47:43.366Z,101181.33
2023-04-18T11:50:11.966Z,101186.14
2023-04-18T11:52:41.695Z,101184.48
2023-04-18T11:55:17.933Z,101183.33
2023-04-18T11:57:59.097Z,101179.23
2023-04-18T12:00:37.761Z,101182.73
2023-04-18T12:03:09.058Z,101182.86
2023-04-18T12:05:38.754Z,101180.55
2023-04-18T12:08:20.062Z,101184.20
2023-04-18T12:10:47.945Z,101177.34
2023-04-18T12:13:15.377Z,101183.55
2023-04-18T12:15:46.804Z,101184.92
2023-04-18T12:18:18.274Z,101180.15
2023-04-18T12:20:50.487Z,101181.73
2023-04-18T12:23:40.183Z,101181.48
2023-04-18T12:26:08.098Z,101180.04
2023-04-18T12:28:35.870Z,101181.20
2023-04-18T12:31:07.517Z,101179.30
2023-04-18T12:33:38.165Z,101182.20
2023-04-18T12:36:11.346Z,101183.41
2023-04-18T12:38:38.343Z,101180.13
2023-04-18T12:41:05.755Z,101180.75
2023-04-18T12:43:32.833Z,101185.91
2023-04-18T12:46:00.133Z,101187.66
2023-04-18T12:48:26.997Z,101188.83
2023-04-18T12:50:53.866Z,101190.21
2023-04-18T12:53:20.942Z,101189.37
2023-04-18T12:55:47.851Z,101187.22
2023-04-18T12:58:18.762Z,101185.11
2023-04-18T13:00:46.241Z,101186.50
2023-04-18T13:03:14.932Z,101184.95
2023-04-18T13:05:43.607Z,101183.11
2023-04-18T13:08:16.742Z,101182.53
2023-04-18T13:10:48.365Z,101177.56
2023-04-18T13:13:15.274Z,101174.95
2023-04-18T13:15:42.674Z,101173.32
2023-04-18T13:18:11.078Z,101175.23
2023-04-18T13:20:39.096Z,101177.88
2023-04-18T13:23:06.230Z,101174.29
2023-04-18T13:25:33.191Z,101173.83
2023-04-18T13:28:01.148Z,101167.71
2023-04-18T13:30:28.411Z,101167.29
2023-04-18T13:32:57.124Z,101165.08
2023-04-18T13:35:24.122Z,101158.31
2023-04-18T13:37:51.660Z,101159.38
2023-04-18T13:40:18.749Z,101157.52
2023-04-18T13:42:46.084Z,101157.38
2023-04-18T13:45:13.128Z,101156.95
2023-04-18T13:47:40.226Z,101158.84
2023-04-18T13:50:08.291Z,101157.20
2023-04-18T13:52:35.980Z,101154.70
2023-04-18T13:55:04.194Z,101153.98
2023-04-18T13:57:34.523Z,101153.48
2023-04-18T14:00:02.021Z,101151.00
2023-04-18T14:02:39.410Z,101149.66
2023-04-18T14:05:07.420Z,101148.23
2023-04-18T14:07:34.498Z,101151.09
2023-04-18T14:10:01.506Z,101152.45
2023-04-18T14:12:28.769Z,101150.20
2023-04-18T14:14:55.715Z,101144.10
2023-04-18T14:17:22.695Z,101141.94
2023-04-18T14:19:51.449Z,101142.17
2023-04-18T14:22:18.382Z,101146.13
2023-04-18T14:24:45.202Z,101143.07
2023-04-18T14:27:12.102Z,101147.42
2023-04-18T14:29:40.416Z,101148.38
2023-04-18T14:32:07.359Z,101146.23
2023-04-18T14:34:35.850Z,101147.55
2023-04-18T14:37:03.959Z,101149.20
2023-04-18T14:39:31.343Z,101146.98
2023-04-18T14:41:58.268Z,101150.11
2023-04-18T14:44:25.139Z,101148.35
2023-04-18T14:46:52.200Z,101151.91
2023-04-18T14:49:19.319Z,101151.34
2023-04-18T14:51:46.195Z,101149.16
2023-04-18T14:54:13.212Z,101152.45
2023-04-18T14:56:40.134Z,101145.98
2023-04-18T14:59:08.205Z,101153.29
2023-04-18T15:01:35.209Z,101156.48
2023-04-18T15:04:04.587Z,101152.23
2023-04-18T15:06:32.767Z,101157.53
2023-04-18T15:08:59.776Z,101155.58
2023-04-18T15:11:27.401Z,101153.40
2023-04-18T15:13:54.364Z,101153.61
2023-04-18T15:16:21.378Z,101154.30
2023-04-18T15:18:48.214Z,101153.62
2023-04-18T15:21:15.113Z,101161.20
2023-04-18T15:23:42.083Z,101163.14
2023-04-18T15:26:09.008Z,101159.77
2023-04-18T15:28:35.889Z,101162.89
2023-04-18T15:31:03.019Z,101166.38
2023-04-18T15:33:30.359Z,101165.85
2023-04-18T15:35:57.255Z,101167.29
2023-04-18T15:38:24.147Z,101168.34
2023-04-18T15:40:51.303Z,101169.66
2023-04-18T15:43:18.320Z,101176.91
2023-04-18T15:45:45.279Z,101173.00
2023-04-18T15:48:13.390Z,101179.08
2023-04-18T15:50:42.115Z,101177.23
2023-04-18T15:53:09.104Z,101174.90
2023-04-18T15:55:36.214Z,101177.77
2023-04-18T15:58:03.168Z,101179.40
2023-04-18T16:00:30.055Z,101179.04
2023-04-18T16:02:57.176Z,101184.34
2023-04-18T16:05:24.268Z,101186.13
2023-04-18T16:07:53.864Z,101184.65
2023-04-18T16:10:20.948Z,101186.23
2023-04-18T16:12:47.992Z,101185.33
2023-04-18T16:15:14.884Z,101184.86
2023-04-18T16:17:41.880Z,101187.30
2023-04-18T16:20:09.291Z,101185.91
2023-04-18T16:22:37.624Z,101192.52
2023-04-18T16:25:05.175Z,101193.42
2023-04-18T16:27:33.211Z,101195.49
2023-04-18T16:30:00.221Z,101196.66
2023-04-18T16:32:27.148Z,101194.11
2023-04-18T16:34:54.159Z,101191.46
2023-04-18T16:37:21.139Z,101193.01
2023-04-18T16:39:48.161Z,101195.32
2023-04-18T16:42:15.834Z,101198.12
2023-04-18T16:44:44.845Z,101202.20
2023-04-18T16:47:11.722Z,101201.63
2023-04-18T16:49:38.836Z,101203.11
2023-04-18T16:52:05.794Z,101206.96
2023-04-18T16:54:32.832Z,101210.73
2023-04-18T16:56:59.906Z,101215.13
2023-04-18T16:59:26.932Z,101220.42
2023-04-18T17:01:54.307Z,101222.80
2023-04-18T17:04:23.280Z,101226.20
2023-04-18T17:06:52.090Z,101228.64
2023-04-18T17:09:19.986Z,101233.02
2023-04-18T17:11:47.213Z,101231.38
2023-04-18T17:14:14.641Z,101233.02
2023-04-18T17:16:42.867Z,101233.50
2023-04-18T17:19:10.438Z,101231.95
2023-04-18T17:21:38.564Z,101233.39
2023-04-18T17:24:07.183Z,101233.91
2023-04-18T17:26:35.906Z,101234.63
2023-04-18T17:29:04.532Z,101238.60
2023-04-18T17:31:32.851Z,101238.54
2023-04-18T17:34:00.579Z,101243.66
2023-04-18T17:36:27.893Z,101244.89
2023-04-18T17:38:55.052Z,101246.84
2023-04-18T17:41:22.727Z,101249.85
2023-04-18T17:43:53.511Z,101249.61
2023-04-18T17:46:20.664Z,101251.05
2023-04-18T17:48:47.895Z,101252.43
2023-04-18T17:51:16.616Z,101252.32
2023-04-18T17:53:43.637Z,101254.23
2023-04-18T17:56:11.074Z,101252.48
2023-04-18T17:58:38.057Z,101254.55
2023-04-18T18:01:17.211Z,101255.92
2023-04-18T18:03:44.994Z,101260.48
2023-04-18T18:06:13.466Z,101259.20
2023-04-18T18:08:40.933Z,101261.10
2023-04-18T18:11:08.178Z,101262.09
2023-04-18T18:13:39.275Z,101265.31
2023-04-18T18:16:07.232Z,101266.73
2023-04-18T18:18:34.809Z,101269.13
2023-04-18T18:21:02.717Z,101273.20
2023-04-18T18:23:29.588Z,101274.46
2023-04-18T18:25:56.605Z,101275.05
2023-04-18T18:28:23.653Z,101279.21
2023-04-18T18:30:50.925Z,101279.95
2023-04-18T18:33:18.161Z,101285.23
2023-04-18T18:35:45.128Z,101283.74
2023-04-18T18:38:12.278Z,101283.56
2023-04-18T18:40:39.507Z,101284.66
2023-04-18T18:43:07.083Z,101287.19
2023-04-18T18:45:34.320Z,101288.95
2023-04-18T18:48:01.520Z,101288.82
2023-04-18T18:50:28.822Z,101294.73
2023-04-18T18:52:56.378Z,101299.63
2023-04-18T18:55:25.585Z,101304.29
2023-04-18T18:57:52.727Z,101312.05
2023-04-18T19:00:19.868Z,101313.85
2023-04-18T19:02:47.027Z,101315.75
2023-04-18T19:05:14.180Z,101318.12
2023-04-18T19:07:44.362Z,101318.12
2023-04-18T19:10:11.551Z,101320.81
2023-04-18T19:12:39.389Z,101322.19
2023-04-18T19:15:07.384Z,101323.61
2023-04-18T19:17:34.840Z,101326.73
2023-04-18T19:20:01.999Z,101325.33
2023-04-18T19:22:30.081Z,101329.34
2023-04-18T19:24:57.630Z,101331.87
2023-04-18T19:27:24.497Z,101332.05
2023-04-18T19:29:51.429Z,101332.00
2023-04-18T19:32:18.466Z,101335.66
2023-04-18T19:34:45.403Z,101338.25
2023-04-18T19:37:12.490Z,101334.27
2023-04-18T19:39:39.537Z,101341.38
2023-04-18T19:42:09.728Z,101337.92
2023-04-18T19:44:36.880Z,101337.23
2023-04-18T19:47:04.053Z,101336.27
2023-04-18T19:49:31.282Z,101337.05
2023-04-18T19:51:58.228Z,101342.71
2023-04-18T19:54:25.474Z,101343.13
2023-04-18T19:56:52.431Z,101346.02
2023-04-18T19:59:19.458Z,101347.40
2023-04-18T20:01:46.501Z,101347.55
2023-04-18T20:04:13.767Z,101348.04
2023-04-18T20:06:40.842Z,101344.75
2023-04-18T20:09:13.690Z,101343.75
2023-04-18T20:11:42.574Z,101343.59
2023-04-18T20:14:10.497Z,101345.50
2023-04-18T20:16:37.398Z,101343.73
2023-04-18T20:19:05.986Z,101343.31
2023-04-18T20:21:33.202Z,101345.92
2023-04-18T20:24:00.178Z,101345.39
2023-04-18T20:26:27.223Z,101349.33
2023-04-18T20:28:54.171Z,101351.02
2023-04-18T20:31:21.168Z,101353.34
2023-04-18T20:33:48.362Z,101353.44
2023-04-18T20:36:17.860Z,101355.34
2023-04-18T20:38:44.873Z,101359.10
2023-04-18T20:41:18.459Z,101358.04
2023-04-18T20:43:47.109Z,101357.89
2023-04-18T20:46:14.218Z,101360.05
2023-04-18T20:48:41.419Z,101360.17
2023-04-18T20:51:08.307Z,101358.65
2023-04-18T20:53:35.342Z,101357.45
2023-04-18T20:56:05.249Z,101360.45
2023-04-18T20:58:32.368Z,101356.91
2023-04-18T21:00:59.261Z,101358.02
2023-04-18T21:03:26.499Z,101358.16
2023-04-18T21:05:53.599Z,101355.73
2023-04-18T21:08:20.631Z,101356.21
2023-04-18T21:10:47.660Z,101351.56
2023-04-18T21:13:14.636Z,101354.96
2023-04-18T21:15:43.067Z,101346.74
2023-04-18T21:18:11.081Z,101349.16
2023-04-18T21:20:38.522Z,101353.34
2023-04-18T21:23:05.471Z,101352.23
2023-04-18T21:25:32.797Z,101349.22
2023-04-18T21:28:00.325Z,101353.98
2023-04-18T21:30:27.613Z,101350.77
2023-04-18T21:32:54.776Z,101354.00
2023-04-18T21:35:24.164Z,101349.83
2023-04-18T21:37:52.193Z,101346.60
2023-04-18T21:40:19.678Z,101349.52
2023-04-18T21:42:48.152Z,101347.36
2023-04-18T21:45:17.494Z,101351.59
2023-04-18T21:47:44.607Z,101350.48
2023-04-18T21:50:11.679Z,101353.08
2023-04-18T21:52:38.615Z,101356.21
2023-04-18T21:55:05.929Z,101354.95
2023-04-18T21:57:32.829Z,101356.48
2023-04-18T21:59:59.731Z,101358.56
2023-04-18T22:02:27.757Z,101355.54
2023-04-18T22:04:54.783Z,101357.44
2023-04-18T22:07:24.224Z,101355.65
2023-04-18T22:09:51.325Z,101356.54
2023-04-18T22:12:18.647Z,101357.77
2023-04-18T22:14:48.505Z,101357.71
2023-04-18T22:17:15.684Z,101358.36
2023-04-18T22:19:44.665Z,101357.19
2023-04-18T22:22:11.791Z,101357.19
2023-04-18T22:24:38.706Z,101360.11
2023-04-18T22:27:06.047Z,101363.23
2023-04-18T22:29:33.090Z,101363.45
2023-04-18T22:31:59.941Z,101361.65
2023-04-18T22:34:26.864Z,101369.80
2023-04-18T22:36:54.528Z,101369.84
2023-04-18T22:39:21.498Z,101370.05
2023-04-18T22:41:48.821Z,101365.13
2023-04-18T22:44:15.917Z,101367.84
2023-04-18T22:46:43.345Z,101368.38
2023-04-18T22:49:10.334Z,101369.39
2023-04-18T22:51:38.376Z,101368.64
2023-04-18T22:54:05.667Z,101368.16
2023-04-18T22:56:33.071Z,101370.60
2023-04-18T22:58:59.903Z,101371.77
2023-04-18T23:01:26.909Z,101369.49
2023-04-18T23:03:53.964Z,101373.20
2023-04-18T23:06:21.175Z,101373.66
2023-04-18T23:08:48.052Z,101374.67
2023-04-18T23:11:16.157Z,101377.73
2023-04-18T23:13:43.098Z,101375.03
2023-04-18T23:16:10.147Z,101374.19
2023-04-18T23:18:37.075Z,101373.46
2023-04-18T23:21:04.343Z,101372.55
2023-04-18T23:23:31.316Z,101369.30
2023-04-18T23:25:58.256Z,101369.48
2023-04-18T23:28:25.425Z,101364.62
2023-04-18T23:30:52.880Z,101362.55
2023-04-18T23:33:19.960Z,101361.09
2023-04-18T23:35:46.933Z,101356.58
2023-04-18T23:38:13.901Z,101352.23
2023-04-18T23:40:41.168Z,101351.02
2023-04-18T23:43:08.010Z,101351.23
2023-04-18T23:45:34.976Z,101352.48
2023-04-18T23:48:02.179Z,101353.05
2023-04-18T23:50:29.092Z,101356.73
2023-04-18T23:52:55.963Z,101356.77
2023-04-18T23:55:23.038Z,101355.77
2023-04-18T23:57:49.894Z,101354.98
